createdAt,value
2023-02-13T00:05:21.710Z,15.86
2023-02-13T00:15:23.246Z,15.83
2023-02-13T00:25:24.812Z,15.82
2023-02-13T00:35:26.188Z,15.80
2023-02-13T00:45:27.581Z,15.75
2023-02-13T00:55:28.986Z,15.73
2023-02-13T01:05:30.560Z,15.71
2023-02-13T01:15:32.572Z,15.69
2023-02-13T01:25:34.107Z,15.66
2023-02-13T01:35:35.499Z,15.67
2023-02-13T01:45:37.011Z,15.64
2023-02-13T01:55:52.930Z,15.64
2023-02-13T02:05:54.891Z,15.63
2023-02-13T02:15:56.321Z,15.61
2023-02-13T02:26:31.263Z,15.59
2023-02-13T02:36:40.861Z,15.58
2023-02-13T02:47:11.164Z,15.53
2023-02-13T02:57:19.258Z,15.55
2023-02-13T03:07:20.705Z,15.53
2023-02-13T03:17:40.661Z,15.53
2023-02-13T03:28:16.238Z,15.64
2023-02-13T03:38:30.032Z,15.82
2023-02-13T03:48:56.032Z,16.08
2023-02-13T03:59:16.194Z,16.24
2023-02-13T04:09:17.744Z,16.39
2023-02-13T04:19:19.311Z,16.50
2023-02-13T04:29:24.151Z,16.61
2023-02-13T04:39:25.579Z,16.69
2023-02-13T04:49:27.102Z,16.74
2023-02-13T04:59:28.622Z,16.74
2023-02-13T05:09:29.987Z,16.67
2023-02-13T05:19:31.551Z,16.67
2023-02-13T05:29:32.921Z,16.78
2023-02-13T05:39:34.304Z,16.85
2023-02-13T05:49:36.790Z,16.93
2023-02-13T05:59:38.538Z,16.98
2023-02-13T06:09:40.141Z,17.00
2023-02-13T06:19:41.541Z,16.97
2023-02-13T06:29:42.939Z,16.98
2023-02-13T06:39:45.198Z,17.00
2023-02-13T06:49:46.597Z,17.03
2023-02-13T06:59:48.163Z,17.08
2023-02-13T07:09:49.547Z,17.10
2023-02-13T07:19:51.066Z,17.10
2023-02-13T07:29:52.670Z,17.17
2023-02-13T07:39:54.074Z,17.33
2023-02-13T07:49:55.605Z,17.73
2023-02-13T07:59:56.998Z,18.06
2023-02-13T08:10:17.014Z,18.42
2023-02-13T08:20:18.471Z,18.75
2023-02-13T08:30:19.899Z,19.07
2023-02-13T08:40:23.499Z,19.36
2023-02-13T08:50:27.166Z,19.57
2023-02-13T09:00:28.773Z,19.77
2023-02-13T09:10:31.258Z,19.98
2023-02-13T09:20:33.917Z,20.12
2023-02-13T09:30:36.165Z,20.20
2023-02-13T09:41:02.701Z,20.28
2023-02-13T09:51:04.359Z,20.37
2023-02-13T10:01:07.011Z,20.62
2023-02-13T10:11:58.834Z,20.29
2023-02-13T10:22:18.471Z,20.01
2023-02-13T10:32:21.186Z,19.89
2023-02-13T10:42:25.608Z,19.81
2023-02-13T10:52:33.588Z,19.74
2023-02-13T11:02:36.740Z,19.68
2023-02-13T11:12:38.331Z,19.58
2023-02-13T11:22:42.312Z,19.49
2023-02-13T11:32:43.706Z,19.40
2023-02-13T11:42:45.425Z,19.31
2023-02-13T11:53:00.511Z,19.22
2023-02-13T12:03:02.103Z,19.15
2023-02-13T12:13:13.563Z,19.08
2023-02-13T12:23:43.834Z,19.03
2023-02-13T12:34:18.896Z,19.00
2023-02-13T12:44:29.185Z,18.98
2023-02-13T12:55:04.447Z,18.98
2023-02-13T13:05:34.476Z,18.97
2023-02-13T13:15:40.977Z,18.96
2023-02-13T13:25:51.689Z,18.90
2023-02-13T13:36:07.662Z,18.84
2023-02-13T13:46:22.542Z,18.78
2023-02-13T13:56:23.961Z,18.75
2023-02-13T14:06:44.268Z,18.71
2023-02-13T14:16:46.056Z,18.68
2023-02-13T14:27:04.931Z,18.64
2023-02-13T14:37:20.721Z,18.60
2023-02-13T14:47:43.639Z,18.57
2023-02-13T14:57:54.222Z,18.53
2023-02-13T15:08:13.569Z,18.50
2023-02-13T15:18:20.749Z,18.48
2023-02-13T15:28:22.136Z,18.43
2023-02-13T15:38:37.723Z,18.39
2023-02-13T15:48:39.113Z,18.33
2023-02-13T15:58:40.504Z,18.27
2023-02-13T16:08:52.179Z,18.23
2023-02-13T16:18:53.815Z,18.17
2023-02-13T16:28:55.694Z,18.11
2023-02-13T16:38:57.142Z,18.06
2023-02-13T16:49:01.334Z,17.96
2023-02-13T16:59:10.568Z,17.90
2023-02-13T17:09:12.087Z,17.83
2023-02-13T17:19:13.538Z,17.76
2023-02-13T17:29:14.925Z,17.70
2023-02-13T17:39:16.490Z,17.63
2023-02-13T17:49:17.901Z,17.58
2023-02-13T17:59:19.438Z,17.51
2023-02-13T18:09:21.351Z,17.44
2023-02-13T18:19:22.891Z,17.42
2023-02-13T18:29:24.355Z,17.37
2023-02-13T18:39:25.743Z,17.35
2023-02-13T18:49:27.179Z,17.30
2023-02-13T18:59:28.645Z,17.24
2023-02-13T19:09:30.257Z,17.19
2023-02-13T19:19:31.817Z,17.16
2023-02-13T19:29:33.361Z,17.13
2023-02-13T19:39:34.772Z,17.07
2023-02-13T19:49:36.319Z,17.04
2023-02-13T19:59:37.857Z,17.00
2023-02-13T20:09:40.268Z,16.96
2023-02-13T20:19:41.672Z,16.94
2023-02-13T20:29:43.179Z,16.91
2023-02-13T20:39:44.565Z,16.87
2023-02-13T20:49:45.983Z,16.87
2023-02-13T20:59:47.408Z,16.83
2023-02-13T21:09:48.792Z,16.81
2023-02-13T21:19:50.398Z,16.77
2023-02-13T21:29:51.876Z,16.72
2023-02-13T21:39:53.271Z,16.70
2023-02-13T21:49:54.671Z,16.63
2023-02-13T21:59:57.006Z,16.62
2023-02-13T22:09:58.455Z,16.60
2023-02-13T22:19:59.852Z,16.53
2023-02-13T22:30:01.387Z,16.47
2023-02-13T22:40:03.479Z,16.45
2023-02-13T22:50:05.619Z,16.43
2023-02-13T23:00:08.664Z,16.36
2023-02-13T23:10:10.580Z,16.29
2023-02-13T23:20:12.197Z,16.32
2023-02-13T23:30:14.631Z,16.27
2023-02-13T23:40:16.382Z,16.27
2023-02-13T23:50:17.851Z,16.27
